sensor_id;sensor_type;location;lat;lon;timestamp;P1;durP1;ratioP1;P2;durP2;ratioP2
45356;SDS011;31092;51.924;21.448;2023-03-02T00:01:06;24.00;;;7.22;;
45356;SDS011;31092;51.924;21.448;2023-03-02T00:03:35;13.88;;;6.72;;
45356;SDS011;31092;51.924;21.448;2023-03-02T00:06:04;21.65;;;7.95;;
45356;SDS011;31092;51.924;21.448;2023-03-02T00:08:30;24.13;;;8.70;;
45356;SDS011;31092;51.924;21.448;2023-03-02T00:10:58;18.70;;;9.02;;
45356;SDS011;31092;51.924;21.448;2023-03-02T00:13:25;10.80;;;5.95;;
45356;SDS011;31092;51.924;21.448;2023-03-02T00:15:53;15.57;;;6.25;;
45356;SDS011;31092;51.924;21.448;2023-03-02T00:18:18;17.40;;;8.20;;
45356;SDS011;31092;51.924;21.448;2023-03-02T00:20:44;16.90;;;8.32;;
45356;SDS011;31092;51.924;21.448;2023-03-02T00:23:10;24.73;;;7.22;;
45356;SDS011;31092;51.924;21.448;2023-03-02T00:25:35;7.88;;;5.05;;
45356;SDS011;31092;51.924;21.448;2023-03-02T00:28:01;9.35;;;5.07;;
45356;SDS011;31092;51.924;21.448;2023-03-02T00:30:26;18.05;;;7.43;;
45356;SDS011;31092;51.924;21.448;2023-03-02T00:32:51;31.02;;;9.05;;
45356;SDS011;31092;51.924;21.448;2023-03-02T00:35:17;8.65;;;4.68;;
45356;SDS011;31092;51.924;21.448;2023-03-02T00:37:42;10.25;;;4.13;;
45356;SDS011;31092;51.924;21.448;2023-03-02T00:40:08;17.10;;;7.07;;
45356;SDS011;31092;51.924;21.448;2023-03-02T00:42:37;14.70;;;7.97;;
45356;SDS011;31092;51.924;21.448;2023-03-02T00:45:04;16.13;;;6.80;;
45356;SDS011;31092;51.924;21.448;2023-03-02T00:47:34;17.33;;;7.55;;
45356;SDS011;31092;51.924;21.448;2023-03-02T00:50:00;11.85;;;6.57;;
45356;SDS011;31092;51.924;21.448;2023-03-02T00:52:30;17.63;;;9.63;;
45356;SDS011;31092;51.924;21.448;2023-03-02T00:54:56;19.03;;;7.27;;
45356;SDS011;31092;51.924;21.448;2023-03-02T00:57:22;12.80;;;7.30;;
45356;SDS011;31092;51.924;21.448;2023-03-02T00:59:47;10.90;;;6.35;;
45356;SDS011;31092;51.924;21.448;2023-03-02T01:02:13;25.88;;;7.15;;
45356;SDS011;31092;51.924;21.448;2023-03-02T01:04:40;17.85;;;8.43;;
45356;SDS011;31092;51.924;21.448;2023-03-02T01:07:08;19.90;;;7.63;;
45356;SDS011;31092;51.924;21.448;2023-03-02T01:09:36;16.55;;;7.57;;
45356;SDS011;31092;51.924;21.448;2023-03-02T01:12:02;22.38;;;7.75;;
45356;SDS011;31092;51.924;21.448;2023-03-02T01:14:29;17.70;;;8.65;;
45356;SDS011;31092;51.924;21.448;2023-03-02T01:16:55;26.02;;;7.32;;
45356;SDS011;31092;51.924;21.448;2023-03-02T01:19:21;12.98;;;6.60;;
45356;SDS011;31092;51.924;21.448;2023-03-02T01:21:47;17.45;;;7.40;;
45356;SDS011;31092;51.924;21.448;2023-03-02T01:24:14;12.57;;;7.05;;
45356;SDS011;31092;51.924;21.448;2023-03-02T01:26:39;14.65;;;8.40;;
45356;SDS011;31092;51.924;21.448;2023-03-02T01:29:05;17.70;;;6.60;;
45356;SDS011;31092;51.924;21.448;2023-03-02T01:31:30;10.45;;;7.00;;
45356;SDS011;31092;51.924;21.448;2023-03-02T01:33:56;12.98;;;6.35;;
45356;SDS011;31092;51.924;21.448;2023-03-02T01:36:21;22.23;;;7.68;;
45356;SDS011;31092;51.924;21.448;2023-03-02T01:38:47;16.42;;;6.00;;
45356;SDS011;31092;51.924;21.448;2023-03-02T01:41:14;8.55;;;5.30;;
45356;SDS011;31092;51.924;21.448;2023-03-02T01:43:39;33.80;;;6.45;;
45356;SDS011;31092;51.924;21.448;2023-03-02T01:46:11;22.80;;;7.60;;
45356;SDS011;31092;51.924;21.448;2023-03-02T01:51:16;15.38;;;7.15;;
45356;SDS011;31092;51.924;21.448;2023-03-02T01:53:44;20.40;;;8.73;;
45356;SDS011;31092;51.924;21.448;2023-03-02T01:56:14;13.68;;;5.90;;
45356;SDS011;31092;51.924;21.448;2023-03-02T01:58:44;23.20;;;6.07;;
45356;SDS011;31092;51.924;21.448;2023-03-02T02:01:15;17.00;;;8.18;;
45356;SDS011;31092;51.924;21.448;2023-03-02T02:03:44;12.07;;;7.32;;
45356;SDS011;31092;51.924;21.448;2023-03-02T02:06:23;10.30;;;5.85;;
45356;SDS011;31092;51.924;21.448;2023-03-02T02:08:53;7.18;;;5.57;;
45356;SDS011;31092;51.924;21.448;2023-03-02T02:11:20;11.13;;;6.50;;
45356;SDS011;31092;51.924;21.448;2023-03-02T02:13:46;9.55;;;6.55;;
45356;SDS011;31092;51.924;21.448;2023-03-02T02:16:11;15.65;;;7.60;;
45356;SDS011;31092;51.924;21.448;2023-03-02T02:18:38;14.35;;;5.88;;
45356;SDS011;31092;51.924;21.448;2023-03-02T02:21:05;18.35;;;8.60;;
45356;SDS011;31092;51.924;21.448;2023-03-02T02:23:33;18.50;;;6.22;;
45356;SDS011;31092;51.924;21.448;2023-03-02T02:26:32;16.33;;;7.47;;
45356;SDS011;31092;51.924;21.448;2023-03-02T02:29:13;20.55;;;6.93;;
45356;SDS011;31092;51.924;21.448;2023-03-02T02:34:57;15.30;;;7.10;;
45356;SDS011;31092;51.924;21.448;2023-03-02T02:37:32;9.50;;;5.22;;
45356;SDS011;31092;51.924;21.448;2023-03-02T02:40:04;10.40;;;7.65;;
45356;SDS011;31092;51.924;21.448;2023-03-02T02:42:36;10.73;;;5.38;;
45356;SDS011;31092;51.924;21.448;2023-03-02T02:45:07;18.38;;;7.63;;
45356;SDS011;31092;51.924;21.448;2023-03-02T02:47:44;6.28;;;5.00;;
45356;SDS011;31092;51.924;21.448;2023-03-02T02:50:18;17.05;;;8.23;;
45356;SDS011;31092;51.924;21.448;2023-03-02T02:52:46;18.17;;;8.70;;
45356;SDS011;31092;51.924;21.448;2023-03-02T02:55:26;11.98;;;6.20;;
45356;SDS011;31092;51.924;21.448;2023-03-02T02:57:54;19.40;;;6.80;;
45356;SDS011;31092;51.924;21.448;2023-03-02T03:00:23;19.63;;;6.90;;
45356;SDS011;31092;51.924;21.448;2023-03-02T03:02:57;13.27;;;6.32;;
45356;SDS011;31092;51.924;21.448;2023-03-02T03:05:26;29.58;;;8.63;;
45356;SDS011;31092;51.924;21.448;2023-03-02T03:08:03;7.07;;;4.97;;
45356;SDS011;31092;51.924;21.448;2023-03-02T03:10:34;15.10;;;6.60;;
45356;SDS011;31092;51.924;21.448;2023-03-02T03:13:05;13.13;;;6.35;;
45356;SDS011;31092;51.924;21.448;2023-03-02T03:15:35;13.55;;;7.60;;
45356;SDS011;31092;51.924;21.448;2023-03-02T03:18:00;20.92;;;6.30;;
45356;SDS011;31092;51.924;21.448;2023-03-02T03:20:26;17.60;;;7.35;;
45356;SDS011;31092;51.924;21.448;2023-03-02T03:22:52;10.23;;;6.32;;
45356;SDS011;31092;51.924;21.448;2023-03-02T03:25:18;19.35;;;7.93;;
45356;SDS011;31092;51.924;21.448;2023-03-02T03:27:45;33.95;;;10.07;;
45356;SDS011;31092;51.924;21.448;2023-03-02T03:30:11;21.02;;;7.80;;
45356;SDS011;31092;51.924;21.448;2023-03-02T03:32:39;17.08;;;9.13;;
45356;SDS011;31092;51.924;21.448;2023-03-02T03:35:05;32.30;;;9.25;;
45356;SDS011;31092;51.924;21.448;2023-03-02T03:37:37;10.07;;;6.28;;
45356;SDS011;31092;51.924;21.448;2023-03-02T03:40:04;6.00;;;4.65;;
45356;SDS011;31092;51.924;21.448;2023-03-02T03:42:33;22.58;;;8.15;;
45356;SDS011;31092;51.924;21.448;2023-03-02T03:44:59;18.40;;;8.15;;
45356;SDS011;31092;51.924;21.448;2023-03-02T03:47:25;23.15;;;7.13;;
45356;SDS011;31092;51.924;21.448;2023-03-02T03:49:51;21.23;;;7.70;;
45356;SDS011;31092;51.924;21.448;2023-03-02T03:52:17;12.43;;;6.35;;
45356;SDS011;31092;51.924;21.448;2023-03-02T03:54:42;14.88;;;7.43;;
45356;SDS011;31092;51.924;21.448;2023-03-02T03:57:08;13.55;;;6.68;;
45356;SDS011;31092;51.924;21.448;2023-03-02T03:59:36;29.20;;;6.00;;
45356;SDS011;31092;51.924;21.448;2023-03-02T04:02:01;8.43;;;5.60;;
45356;SDS011;31092;51.924;21.448;2023-03-02T04:04:28;20.35;;;7.50;;
45356;SDS011;31092;51.924;21.448;2023-03-02T04:06:59;6.38;;;4.20;;
45356;SDS011;31092;51.924;21.448;2023-03-02T04:09:25;17.42;;;6.32;;
45356;SDS011;31092;51.924;21.448;2023-03-02T04:11:52;18.27;;;6.80;;
45356;SDS011;31092;51.924;21.448;2023-03-02T04:14:19;17.80;;;7.88;;
45356;SDS011;31092;51.924;21.448;2023-03-02T04:16:46;15.43;;;6.20;;
45356;SDS011;31092;51.924;21.448;2023-03-02T04:19:11;12.85;;;5.47;;
45356;SDS011;31092;51.924;21.448;2023-03-02T04:21:42;6.32;;;4.40;;
45356;SDS011;31092;51.924;21.448;2023-03-02T04:24:09;14.02;;;7.15;;
45356;SDS011;31092;51.924;21.448;2023-03-02T04:26:36;11.15;;;6.28;;
45356;SDS011;31092;51.924;21.448;2023-03-02T04:29:03;12.70;;;5.88;;
45356;SDS011;31092;51.924;21.448;2023-03-02T04:31:28;20.88;;;6.05;;
45356;SDS011;31092;51.924;21.448;2023-03-02T04:33:55;21.30;;;5.03;;
45356;SDS011;31092;51.924;21.448;2023-03-02T04:36:21;4.82;;;2.88;;
45356;SDS011;31092;51.924;21.448;2023-03-02T04:38:47;13.70;;;1.83;;
45356;SDS011;31092;51.924;21.448;2023-03-02T04:41:13;11.05;;;3.85;;
45356;SDS011;31092;51.924;21.448;2023-03-02T04:43:39;8.88;;;4.15;;
45356;SDS011;31092;51.924;21.448;2023-03-02T04:46:04;6.35;;;3.05;;
45356;SDS011;31092;51.924;21.448;2023-03-02T04:48:30;5.60;;;2.03;;
45356;SDS011;31092;51.924;21.448;2023-03-02T04:50:55;10.10;;;3.53;;
45356;SDS011;31092;51.924;21.448;2023-03-02T04:53:21;7.93;;;3.17;;
45356;SDS011;31092;51.924;21.448;2023-03-02T04:55:46;7.55;;;2.55;;
45356;SDS011;31092;51.924;21.448;2023-03-02T04:58:12;14.68;;;3.53;;
45356;SDS011;31092;51.924;21.448;2023-03-02T05:00:38;3.70;;;2.67;;
45356;SDS011;31092;51.924;21.448;2023-03-02T05:03:05;10.77;;;4.20;;
45356;SDS011;31092;51.924;21.448;2023-03-02T05:05:30;8.18;;;4.70;;
45356;SDS011;31092;51.924;21.448;2023-03-02T05:07:57;9.82;;;3.50;;
45356;SDS011;31092;51.924;21.448;2023-03-02T05:10:23;6.82;;;4.78;;
45356;SDS011;31092;51.924;21.448;2023-03-02T05:12:49;4.55;;;2.28;;
45356;SDS011;31092;51.924;21.448;2023-03-02T05:15:36;13.83;;;3.43;;
45356;SDS011;31092;51.924;21.448;2023-03-02T05:18:05;6.38;;;3.42;;
45356;SDS011;31092;51.924;21.448;2023-03-02T05:20:32;6.72;;;2.72;;
45356;SDS011;31092;51.924;21.448;2023-03-02T05:23:02;5.97;;;3.10;;
45356;SDS011;31092;51.924;21.448;2023-03-02T05:25:31;10.70;;;5.10;;
45356;SDS011;31092;51.924;21.448;2023-03-02T05:27:58;7.93;;;2.80;;
45356;SDS011;31092;51.924;21.448;2023-03-02T05:30:24;13.10;;;4.75;;
45356;SDS011;31092;51.924;21.448;2023-03-02T05:32:50;7.63;;;2.42;;
45356;SDS011;31092;51.924;21.448;2023-03-02T05:35:17;3.67;;;3.08;;
45356;SDS011;31092;51.924;21.448;2023-03-02T05:37:43;6.30;;;3.65;;
45356;SDS011;31092;51.924;21.448;2023-03-02T05:40:12;5.82;;;4.10;;
45356;SDS011;31092;51.924;21.448;2023-03-02T05:42:41;6.90;;;3.88;;
45356;SDS011;31092;51.924;21.448;2023-03-02T05:45:08;4.70;;;2.53;;
45356;SDS011;31092;51.924;21.448;2023-03-02T05:47:40;4.90;;;3.08;;
45356;SDS011;31092;51.924;21.448;2023-03-02T05:50:06;6.03;;;3.28;;
45356;SDS011;31092;51.924;21.448;2023-03-02T05:52:32;5.13;;;3.08;;
45356;SDS011;31092;51.924;21.448;2023-03-02T05:54:57;10.98;;;3.65;;
45356;SDS011;31092;51.924;21.448;2023-03-02T05:57:23;14.60;;;5.35;;
45356;SDS011;31092;51.924;21.448;2023-03-02T05:59:49;7.55;;;3.67;;
45356;SDS011;31092;51.924;21.448;2023-03-02T06:02:15;5.05;;;1.90;;
45356;SDS011;31092;51.924;21.448;2023-03-02T06:04:41;5.78;;;2.90;;
45356;SDS011;31092;51.924;21.448;2023-03-02T06:07:11;3.58;;;3.25;;
45356;SDS011;31092;51.924;21.448;2023-03-02T06:09:37;9.18;;;2.35;;
45356;SDS011;31092;51.924;21.448;2023-03-02T06:12:04;7.35;;;3.65;;
45356;SDS011;31092;51.924;21.448;2023-03-02T06:14:30;6.32;;;2.83;;
45356;SDS011;31092;51.924;21.448;2023-03-02T06:16:56;10.63;;;3.40;;
45356;SDS011;31092;51.924;21.448;2023-03-02T06:19:21;21.58;;;5.30;;
45356;SDS011;31092;51.924;21.448;2023-03-02T06:21:47;24.88;;;4.00;;
45356;SDS011;31092;51.924;21.448;2023-03-02T06:24:12;6.88;;;2.85;;
45356;SDS011;31092;51.924;21.448;2023-03-02T06:26:38;7.90;;;4.03;;
45356;SDS011;31092;51.924;21.448;2023-03-02T06:29:03;9.43;;;4.30;;
45356;SDS011;31092;51.924;21.448;2023-03-02T06:31:29;2.85;;;2.45;;
45356;SDS011;31092;51.924;21.448;2023-03-02T06:33:58;7.95;;;2.45;;
45356;SDS011;31092;51.924;21.448;2023-03-02T06:36:29;2.78;;;2.30;;
45356;SDS011;31092;51.924;21.448;2023-03-02T06:38:54;9.93;;;2.30;;
45356;SDS011;31092;51.924;21.448;2023-03-02T06:41:20;8.02;;;2.20;;
45356;SDS011;31092;51.924;21.448;2023-03-02T06:43:45;11.90;;;2.78;;
45356;SDS011;31092;51.924;21.448;2023-03-02T06:46:11;2.40;;;1.77;;
45356;SDS011;31092;51.924;21.448;2023-03-02T06:48:37;6.60;;;3.90;;
45356;SDS011;31092;51.924;21.448;2023-03-02T06:51:02;3.70;;;1.92;;
45356;SDS011;31092;51.924;21.448;2023-03-02T06:53:28;12.75;;;3.28;;
45356;SDS011;31092;51.924;21.448;2023-03-02T06:55:54;4.63;;;2.60;;
45356;SDS011;31092;51.924;21.448;2023-03-02T06:58:19;12.05;;;3.15;;
45356;SDS011;31092;51.924;21.448;2023-03-02T07:00:44;9.75;;;2.70;;
45356;SDS011;31092;51.924;21.448;2023-03-02T07:03:10;6.07;;;2.78;;
45356;SDS011;31092;51.924;21.448;2023-03-02T07:05:36;10.23;;;4.97;;
45356;SDS011;31092;51.924;21.448;2023-03-02T07:08:01;11.48;;;3.45;;
45356;SDS011;31092;51.924;21.448;2023-03-02T07:10:27;2.45;;;1.67;;
45356;SDS011;31092;51.924;21.448;2023-03-02T07:12:53;10.00;;;2.22;;
45356;SDS011;31092;51.924;21.448;2023-03-02T07:15:19;8.13;;;2.60;;
45356;SDS011;31092;51.924;21.448;2023-03-02T07:17:45;9.25;;;3.97;;
45356;SDS011;31092;51.924;21.448;2023-03-02T07:20:11;3.42;;;2.85;;
45356;SDS011;31092;51.924;21.448;2023-03-02T07:22:38;6.85;;;1.95;;
45356;SDS011;31092;51.924;21.448;2023-03-02T07:25:05;3.05;;;2.53;;
45356;SDS011;31092;51.924;21.448;2023-03-02T07:27:31;2.05;;;1.77;;
45356;SDS011;31092;51.924;21.448;2023-03-02T07:29:56;3.05;;;1.10;;
45356;SDS011;31092;51.924;21.448;2023-03-02T07:32:22;3.03;;;1.95;;
45356;SDS011;31092;51.924;21.448;2023-03-02T07:34:48;1.92;;;1.33;;
45356;SDS011;31092;51.924;21.448;2023-03-02T07:37:13;8.43;;;2.22;;
45356;SDS011;31092;51.924;21.448;2023-03-02T07:39:39;4.40;;;2.20;;
45356;SDS011;31092;51.924;21.448;2023-03-02T07:42:04;2.50;;;1.30;;
45356;SDS011;31092;51.924;21.448;2023-03-02T07:44:32;1.63;;;1.23;;
45356;SDS011;31092;51.924;21.448;2023-03-02T07:46:58;2.47;;;1.20;;
45356;SDS011;31092;51.924;21.448;2023-03-02T07:49:24;7.57;;;1.40;;
45356;SDS011;31092;51.924;21.448;2023-03-02T07:51:49;1.35;;;1.25;;
45356;SDS011;31092;51.924;21.448;2023-03-02T07:54:15;2.47;;;1.25;;
45356;SDS011;31092;51.924;21.448;2023-03-02T07:56:40;5.22;;;2.47;;
45356;SDS011;31092;51.924;21.448;2023-03-02T07:59:06;0.82;;;0.82;;
45356;SDS011;31092;51.924;21.448;2023-03-02T08:01:31;2.83;;;1.52;;
45356;SDS011;31092;51.924;21.448;2023-03-02T08:03:57;6.50;;;1.85;;
45356;SDS011;31092;51.924;21.448;2023-03-02T08:06:22;6.13;;;1.13;;
45356;SDS011;31092;51.924;21.448;2023-03-02T08:08:48;3.90;;;2.00;;
45356;SDS011;31092;51.924;21.448;2023-03-02T08:11:15;0.57;;;0.57;;
45356;SDS011;31092;51.924;21.448;2023-03-02T08:13:41;0.60;;;0.60;;
45356;SDS011;31092;51.924;21.448;2023-03-02T08:16:07;1.13;;;1.13;;
45356;SDS011;31092;51.924;21.448;2023-03-02T08:18:35;1.17;;;1.02;;
45356;SDS011;31092;51.924;21.448;2023-03-02T08:21:01;2.72;;;0.60;;
45356;SDS011;31092;51.924;21.448;2023-03-02T08:23:27;0.60;;;0.57;;
45356;SDS011;31092;51.924;21.448;2023-03-02T08:25:53;1.80;;;1.10;;
45356;SDS011;31092;51.924;21.448;2023-03-02T08:28:20;0.60;;;0.60;;
45356;SDS011;31092;51.924;21.448;2023-03-02T08:30:56;2.35;;;1.17;;
45356;SDS011;31092;51.924;21.448;2023-03-02T08:33:22;3.22;;;0.88;;
45356;SDS011;31092;51.924;21.448;2023-03-02T08:35:55;2.50;;;2.10;;
45356;SDS011;31092;51.924;21.448;2023-03-02T08:38:26;5.13;;;2.08;;
45356;SDS011;31092;51.924;21.448;2023-03-02T08:40:52;2.95;;;1.15;;
45356;SDS011;31092;51.924;21.448;2023-03-02T08:43:19;0.35;;;0.32;;
45356;SDS011;31092;51.924;21.448;2023-03-02T08:45:49;2.53;;;1.08;;
45356;SDS011;31092;51.924;21.448;2023-03-02T08:48:19;1.65;;;0.63;;
45356;SDS011;31092;51.924;21.448;2023-03-02T08:53:32;0.60;;;0.60;;
45356;SDS011;31092;51.924;21.448;2023-03-02T08:56:00;1.35;;;0.93;;
45356;SDS011;31092;51.924;21.448;2023-03-02T08:58:25;2.88;;;0.68;;
45356;SDS011;31092;51.924;21.448;2023-03-02T09:00:51;0.25;;;0.25;;
45356;SDS011;31092;51.924;21.448;2023-03-02T09:03:17;1.33;;;0.68;;
45356;SDS011;31092;51.924;21.448;2023-03-02T09:05:42;0.57;;;0.57;;
45356;SDS011;31092;51.924;21.448;2023-03-02T09:08:08;1.50;;;0.68;;
45356;SDS011;31092;51.924;21.448;2023-03-02T09:10:34;4.78;;;0.88;;
45356;SDS011;31092;51.924;21.448;2023-03-02T09:13:00;2.22;;;1.27;;
45356;SDS011;31092;51.924;21.448;2023-03-02T09:15:25;0.60;;;0.60;;
45356;SDS011;31092;51.924;21.448;2023-03-02T09:17:51;0.47;;;0.25;;
45356;SDS011;31092;51.924;21.448;2023-03-02T09:20:17;2.42;;;0.82;;
45356;SDS011;31092;51.924;21.448;2023-03-02T09:22:42;1.73;;;1.13;;
45356;SDS011;31092;51.924;21.448;2023-03-02T09:25:13;2.40;;;1.20;;
45356;SDS011;31092;51.924;21.448;2023-03-02T09:27:40;2.38;;;0.77;;
45356;SDS011;31092;51.924;21.448;2023-03-02T09:30:06;1.75;;;0.73;;
45356;SDS011;31092;51.924;21.448;2023-03-02T09:32:33;1.33;;;0.82;;
45356;SDS011;31092;51.924;21.448;2023-03-02T09:34:58;1.65;;;1.33;;
45356;SDS011;31092;51.924;21.448;2023-03-02T09:37:24;0.88;;;0.77;;
45356;SDS011;31092;51.924;21.448;2023-03-02T09:39:50;2.28;;;1.38;;
45356;SDS011;31092;51.924;21.448;2023-03-02T09:42:18;1.42;;;0.93;;
45356;SDS011;31092;51.924;21.448;2023-03-02T09:50:36;0.73;;;0.73;;
45356;SDS011;31092;51.924;21.448;2023-03-02T09:55:50;0.93;;;0.40;;
45356;SDS011;31092;51.924;21.448;2023-03-02T09:58:19;0.60;;;0.60;;
45356;SDS011;31092;51.924;21.448;2023-03-02T10:00:49;2.97;;;1.80;;
45356;SDS011;31092;51.924;21.448;2023-03-02T10:03:19;1.20;;;0.52;;
45356;SDS011;31092;51.924;21.448;2023-03-02T10:05:48;0.65;;;0.65;;
45356;SDS011;31092;51.924;21.448;2023-03-02T10:08:17;4.80;;;0.93;;
45356;SDS011;31092;51.924;21.448;2023-03-02T10:16:33;1.35;;;0.88;;
45356;SDS011;31092;51.924;21.448;2023-03-02T10:19:11;0.85;;;0.80;;
45356;SDS011;31092;51.924;21.448;2023-03-02T10:21:50;2.17;;;0.93;;
45356;SDS011;31092;51.924;21.448;2023-03-02T10:24:28;4.15;;;1.83;;
45356;SDS011;31092;51.924;21.448;2023-03-02T10:26:58;0.55;;;0.52;;
45356;SDS011;31092;51.924;21.448;2023-03-02T10:29:40;0.30;;;0.30;;
45356;SDS011;31092;51.924;21.448;2023-03-02T10:32:23;1.02;;;0.77;;
45356;SDS011;31092;51.924;21.448;2023-03-02T10:34:52;1.02;;;0.60;;
45356;SDS011;31092;51.924;21.448;2023-03-02T10:37:19;2.58;;;1.80;;
45356;SDS011;31092;51.924;21.448;2023-03-02T10:39:49;2.22;;;1.00;;
45356;SDS011;31092;51.924;21.448;2023-03-02T10:42:28;2.42;;;1.17;;
45356;SDS011;31092;51.924;21.448;2023-03-02T10:45:04;1.20;;;0.85;;
45356;SDS011;31092;51.924;21.448;2023-03-02T10:47:38;2.22;;;0.90;;
45356;SDS011;31092;51.924;21.448;2023-03-02T10:50:19;1.02;;;0.85;;
45356;SDS011;31092;51.924;21.448;2023-03-02T10:52:48;2.63;;;0.60;;
45356;SDS011;31092;51.924;21.448;2023-03-02T10:55:14;0.68;;;0.50;;
45356;SDS011;31092;51.924;21.448;2023-03-02T10:57:43;1.67;;;1.13;;
45356;SDS011;31092;51.924;21.448;2023-03-02T11:02:52;2.92;;;1.40;;
45356;SDS011;31092;51.924;21.448;2023-03-02T11:10:20;0.60;;;0.60;;
45356;SDS011;31092;51.924;21.448;2023-03-02T11:12:49;3.15;;;0.45;;
45356;SDS011;31092;51.924;21.448;2023-03-02T11:20:32;1.05;;;0.85;;
45356;SDS011;31092;51.924;21.448;2023-03-02T11:23:15;1.17;;;0.88;;
45356;SDS011;31092;51.924;21.448;2023-03-02T11:25:58;2.00;;;1.40;;
45356;SDS011;31092;51.924;21.448;2023-03-02T11:29:16;1.48;;;1.35;;
45356;SDS011;31092;51.924;21.448;2023-03-02T11:31:22;0.70;;;0.57;;
45356;SDS011;31092;51.924;21.448;2023-03-02T11:39:24;2.67;;;1.52;;
45356;SDS011;31092;51.924;21.448;2023-03-02T11:42:01;3.35;;;2.15;;
45356;SDS011;31092;51.924;21.448;2023-03-02T11:44:26;2.15;;;1.38;;
45356;SDS011;31092;51.924;21.448;2023-03-02T11:46:58;2.70;;;2.17;;
45356;SDS011;31092;51.924;21.448;2023-03-02T11:49:30;2.42;;;1.25;;
45356;SDS011;31092;51.924;21.448;2023-03-02T11:52:02;4.57;;;1.30;;
45356;SDS011;31092;51.924;21.448;2023-03-02T11:54:38;3.97;;;1.88;;
45356;SDS011;31092;51.924;21.448;2023-03-02T11:57:21;4.68;;;2.28;;
45356;SDS011;31092;51.924;21.448;2023-03-02T12:00:04;4.72;;;1.58;;
45356;SDS011;31092;51.924;21.448;2023-03-02T12:02:39;3.30;;;1.65;;
45356;SDS011;31092;51.924;21.448;2023-03-02T12:05:21;5.25;;;3.15;;
45356;SDS011;31092;51.924;21.448;2023-03-02T12:07:56;10.23;;;2.72;;
45356;SDS011;31092;51.924;21.448;2023-03-02T12:10:35;2.70;;;1.25;;
45356;SDS011;31092;51.924;21.448;2023-03-02T12:13:13;4.43;;;1.67;;
45356;SDS011;31092;51.924;21.448;2023-03-02T12:15:46;6.93;;;2.80;;
45356;SDS011;31092;51.924;21.448;2023-03-02T12:20:44;4.25;;;2.30;;
45356;SDS011;31092;51.924;21.448;2023-03-02T12:23:22;3.05;;;2.08;;
45356;SDS011;31092;51.924;21.448;2023-03-02T12:25:49;2.45;;;1.48;;
45356;SDS011;31092;51.924;21.448;2023-03-02T12:28:28;4.68;;;1.73;;
45356;SDS011;31092;51.924;21.448;2023-03-02T12:31:02;9.07;;;3.05;;
45356;SDS011;31092;51.924;21.448;2023-03-02T12:33:30;5.03;;;2.88;;
45356;SDS011;31092;51.924;21.448;2023-03-02T12:36:03;7.00;;;3.40;;
45356;SDS011;31092;51.924;21.448;2023-03-02T12:38:36;3.50;;;1.58;;
45356;SDS011;31092;51.924;21.448;2023-03-02T12:43:37;8.20;;;3.03;;
45356;SDS011;31092;51.924;21.448;2023-03-02T12:51:57;2.72;;;2.03;;
45356;SDS011;31092;51.924;21.448;2023-03-02T12:54:26;5.50;;;2.60;;
45356;SDS011;31092;51.924;21.448;2023-03-02T12:59:37;4.53;;;2.78;;
45356;SDS011;31092;51.924;21.448;2023-03-02T13:04:38;4.72;;;2.20;;
45356;SDS011;31092;51.924;21.448;2023-03-02T13:07:03;4.25;;;2.08;;
45356;SDS011;31092;51.924;21.448;2023-03-02T13:09:29;7.93;;;2.25;;
45356;SDS011;31092;51.924;21.448;2023-03-02T13:11:55;7.88;;;2.47;;
45356;SDS011;31092;51.924;21.448;2023-03-02T13:14:25;8.30;;;3.65;;
45356;SDS011;31092;51.924;21.448;2023-03-02T13:16:55;6.28;;;3.67;;
45356;SDS011;31092;51.924;21.448;2023-03-02T13:19:28;6.00;;;2.58;;
45356;SDS011;31092;51.924;21.448;2023-03-02T13:21:56;5.63;;;3.13;;
45356;SDS011;31092;51.924;21.448;2023-03-02T13:24:33;7.03;;;2.63;;
45356;SDS011;31092;51.924;21.448;2023-03-02T13:27:15;4.80;;;2.70;;
45356;SDS011;31092;51.924;21.448;2023-03-02T13:29:43;8.30;;;3.30;;
45356;SDS011;31092;51.924;21.448;2023-03-02T13:32:20;3.50;;;1.88;;
45356;SDS011;31092;51.924;21.448;2023-03-02T13:34:52;8.73;;;2.38;;
45356;SDS011;31092;51.924;21.448;2023-03-02T13:37:39;2.45;;;1.63;;
45356;SDS011;31092;51.924;21.448;2023-03-02T13:42:46;7.97;;;1.83;;
45356;SDS011;31092;51.924;21.448;2023-03-02T13:47:46;10.00;;;2.88;;
45356;SDS011;31092;51.924;21.448;2023-03-02T13:50:19;5.72;;;1.95;;
45356;SDS011;31092;51.924;21.448;2023-03-02T13:52:47;5.53;;;2.25;;
45356;SDS011;31092;51.924;21.448;2023-03-02T13:55:17;4.80;;;2.53;;
45356;SDS011;31092;51.924;21.448;2023-03-02T13:57:44;4.60;;;2.90;;
45356;SDS011;31092;51.924;21.448;2023-03-02T14:00:12;5.95;;;2.83;;
45356;SDS011;31092;51.924;21.448;2023-03-02T14:02:46;3.35;;;2.13;;
45356;SDS011;31092;51.924;21.448;2023-03-02T14:07:42;6.22;;;3.13;;
45356;SDS011;31092;51.924;21.448;2023-03-02T14:10:09;7.10;;;1.77;;
45356;SDS011;31092;51.924;21.448;2023-03-02T14:12:35;5.15;;;2.30;;
45356;SDS011;31092;51.924;21.448;2023-03-02T14:15:02;3.45;;;1.58;;
45356;SDS011;31092;51.924;21.448;2023-03-02T14:17:28;5.10;;;2.33;;
45356;SDS011;31092;51.924;21.448;2023-03-02T14:19:54;4.32;;;1.95;;
45356;SDS011;31092;51.924;21.448;2023-03-02T14:22:24;7.00;;;2.83;;
45356;SDS011;31092;51.924;21.448;2023-03-02T14:24:51;8.70;;;2.78;;
45356;SDS011;31092;51.924;21.448;2023-03-02T14:27:17;6.50;;;2.35;;
45356;SDS011;31092;51.924;21.448;2023-03-02T14:29:44;4.57;;;2.03;;
45356;SDS011;31092;51.924;21.448;2023-03-02T14:32:11;10.73;;;2.67;;
45356;SDS011;31092;51.924;21.448;2023-03-02T14:34:38;8.30;;;4.82;;
45356;SDS011;31092;51.924;21.448;2023-03-02T14:37:07;6.47;;;2.60;;
45356;SDS011;31092;51.924;21.448;2023-03-02T14:39:38;7.82;;;4.68;;
45356;SDS011;31092;51.924;21.448;2023-03-02T14:42:07;10.88;;;3.97;;
45356;SDS011;31092;51.924;21.448;2023-03-02T14:44:39;7.72;;;4.22;;
45356;SDS011;31092;51.924;21.448;2023-03-02T14:47:06;5.70;;;3.33;;
45356;SDS011;31092;51.924;21.448;2023-03-02T14:49:34;4.45;;;2.03;;
45356;SDS011;31092;51.924;21.448;2023-03-02T14:52:01;12.55;;;5.13;;
45356;SDS011;31092;51.924;21.448;2023-03-02T14:54:38;5.90;;;2.95;;
45356;SDS011;31092;51.924;21.448;2023-03-02T14:57:25;4.35;;;2.28;;
45356;SDS011;31092;51.924;21.448;2023-03-02T14:59:54;10.88;;;3.75;;
45356;SDS011;31092;51.924;21.448;2023-03-02T15:02:21;2.90;;;2.35;;
45356;SDS011;31092;51.924;21.448;2023-03-02T15:04:47;10.10;;;4.80;;
45356;SDS011;31092;51.924;21.448;2023-03-02T15:07:16;7.57;;;3.38;;
45356;SDS011;31092;51.924;21.448;2023-03-02T15:09:44;7.47;;;3.25;;
45356;SDS011;31092;51.924;21.448;2023-03-02T15:12:09;7.90;;;3.35;;
45356;SDS011;31092;51.924;21.448;2023-03-02T15:14:35;6.47;;;3.33;;
45356;SDS011;31092;51.924;21.448;2023-03-02T15:17:02;11.02;;;4.05;;
45356;SDS011;31092;51.924;21.448;2023-03-02T15:19:28;9.43;;;3.15;;
45356;SDS011;31092;51.924;21.448;2023-03-02T15:21:55;5.50;;;2.95;;
45356;SDS011;31092;51.924;21.448;2023-03-02T15:24:20;9.43;;;3.92;;
45356;SDS011;31092;51.924;21.448;2023-03-02T15:26:48;10.18;;;5.30;;
45356;SDS011;31092;51.924;21.448;2023-03-02T15:29:14;6.72;;;3.83;;
45356;SDS011;31092;51.924;21.448;2023-03-02T15:31:40;9.30;;;2.65;;
45356;SDS011;31092;51.924;21.448;2023-03-02T15:34:07;12.10;;;3.50;;
45356;SDS011;31092;51.924;21.448;2023-03-02T15:36:33;6.00;;;3.97;;
45356;SDS011;31092;51.924;21.448;2023-03-02T15:38:58;6.97;;;3.67;;
45356;SDS011;31092;51.924;21.448;2023-03-02T15:41:24;5.75;;;2.63;;
45356;SDS011;31092;51.924;21.448;2023-03-02T15:43:50;11.93;;;5.18;;